sensor_id;sensor_type;location;lat;lon;timestamp;temperature;humidity
33761;DHT22;20084;47.912;19.044;2022-09-09T00:00:49;18.60;99.90
33761;DHT22;20084;47.912;19.044;2022-09-09T00:03:27;18.50;99.90
33761;DHT22;20084;47.912;19.044;2022-09-09T00:11:35;18.40;99.90
33761;DHT22;20084;47.912;19.044;2022-09-09T00:14:11;18.40;99.90
33761;DHT22;20084;47.912;19.044;2022-09-09T00:16:43;18.40;99.90
33761;DHT22;20084;47.912;19.044;2022-09-09T00:19:24;18.30;99.90
33761;DHT22;20084;47.912;19.044;2022-09-09T00:24:49;18.30;99.90
33761;DHT22;20084;47.912;19.044;2022-09-09T00:30:26;18.40;99.90
33761;DHT22;20084;47.912;19.044;2022-09-09T00:32:59;18.20;99.90
33761;DHT22;20084;47.912;19.044;2022-09-09T00:35:32;18.20;99.90
33761;DHT22;20084;47.912;19.044;2022-09-09T00:38:11;18.20;99.90
33761;DHT22;20084;47.912;19.044;2022-09-09T00:40:53;18.20;99.90
33761;DHT22;20084;47.912;19.044;2022-09-09T00:43:36;18.20;99.90
33761;DHT22;20084;47.912;19.044;2022-09-09T00:49:37;18.20;99.90
33761;DHT22;20084;47.912;19.044;2022-09-09T00:55:54;18.10;99.90
33761;DHT22;20084;47.912;19.044;2022-09-09T00:58:21;18.00;99.90
33761;DHT22;20084;47.912;19.044;2022-09-09T01:03:32;17.90;99.90
33761;DHT22;20084;47.912;19.044;2022-09-09T01:17:12;17.80;99.90
33761;DHT22;20084;47.912;19.044;2022-09-09T01:25:22;17.70;99.90
33761;DHT22;20084;47.912;19.044;2022-09-09T01:27:52;17.80;99.90
33761;DHT22;20084;47.912;19.044;2022-09-09T01:30:18;17.80;99.90
33761;DHT22;20084;47.912;19.044;2022-09-09T01:32:50;17.80;99.90
33761;DHT22;20084;47.912;19.044;2022-09-09T01:37:52;17.80;99.90
33761;DHT22;20084;47.912;19.044;2022-09-09T01:40:17;17.90;99.90
33761;DHT22;20084;47.912;19.044;2022-09-09T01:42:43;17.90;99.90
33761;DHT22;20084;47.912;19.044;2022-09-09T01:45:09;17.90;99.90
33761;DHT22;20084;47.912;19.044;2022-09-09T01:47:35;17.80;99.90
33761;DHT22;20084;47.912;19.044;2022-09-09T01:50:02;17.90;99.90
33761;DHT22;20084;47.912;19.044;2022-09-09T01:52:29;17.80;99.90
33761;DHT22;20084;47.912;19.044;2022-09-09T01:54:55;17.80;99.90
33761;DHT22;20084;47.912;19.044;2022-09-09T02:00:09;17.90;99.90
33761;DHT22;20084;47.912;19.044;2022-09-09T02:05:40;17.90;99.90
33761;DHT22;20084;47.912;19.044;2022-09-09T02:08:23;18.00;99.90
33761;DHT22;20084;47.912;19.044;2022-09-09T02:10:59;18.10;99.90
33761;DHT22;20084;47.912;19.044;2022-09-09T02:13:28;18.00;99.90
33761;DHT22;20084;47.912;19.044;2022-09-09T02:16:07;18.10;99.90
33761;DHT22;20084;47.912;19.044;2022-09-09T02:18:50;18.10;99.90
33761;DHT22;20084;47.912;19.044;2022-09-09T02:21:18;18.00;99.90
33761;DHT22;20084;47.912;19.044;2022-09-09T02:23:45;18.00;99.90
33761;DHT22;20084;47.912;19.044;2022-09-09T02:26:13;17.90;99.90
33761;DHT22;20084;47.912;19.044;2022-09-09T02:28:46;18.00;99.90
33761;DHT22;20084;47.912;19.044;2022-09-09T02:31:14;17.90;99.90
33761;DHT22;20084;47.912;19.044;2022-09-09T02:33:45;17.80;99.90
33761;DHT22;20084;47.912;19.044;2022-09-09T02:36:14;17.80;99.90
33761;DHT22;20084;47.912;19.044;2022-09-09T02:38:46;17.70;99.90
33761;DHT22;20084;47.912;19.044;2022-09-09T02:41:49;17.70;99.90
33761;DHT22;20084;47.912;19.044;2022-09-09T02:44:13;17.70;99.90
33761;DHT22;20084;47.912;19.044;2022-09-09T02:49:35;17.50;99.90
33761;DHT22;20084;47.912;19.044;2022-09-09T02:52:14;17.50;99.90
33761;DHT22;20084;47.912;19.044;2022-09-09T02:54:43;17.50;99.90
33761;DHT22;20084;47.912;19.044;2022-09-09T02:57:17;17.40;99.90
33761;DHT22;20084;47.912;19.044;2022-09-09T02:59:45;17.30;99.90
33761;DHT22;20084;47.912;19.044;2022-09-09T03:02:11;17.30;99.90
33761;DHT22;20084;47.912;19.044;2022-09-09T03:04:38;17.30;99.90
33761;DHT22;20084;47.912;19.044;2022-09-09T03:07:04;17.30;99.90
33761;DHT22;20084;47.912;19.044;2022-09-09T03:09:30;17.30;99.90
33761;DHT22;20084;47.912;19.044;2022-09-09T03:11:56;17.30;99.90
33761;DHT22;20084;47.912;19.044;2022-09-09T03:14:22;17.30;99.90
33761;DHT22;20084;47.912;19.044;2022-09-09T03:16:51;17.30;99.90
33761;DHT22;20084;47.912;19.044;2022-09-09T03:19:16;17.30;99.90
33761;DHT22;20084;47.912;19.044;2022-09-09T03:21:44;17.30;99.90
33761;DHT22;20084;47.912;19.044;2022-09-09T03:24:09;17.40;99.90
33761;DHT22;20084;47.912;19.044;2022-09-09T03:26:35;17.40;99.90
33761;DHT22;20084;47.912;19.044;2022-09-09T03:29:03;17.40;99.90
33761;DHT22;20084;47.912;19.044;2022-09-09T03:31:34;17.40;99.90
33761;DHT22;20084;47.912;19.044;2022-09-09T03:34:01;17.40;99.90
33761;DHT22;20084;47.912;19.044;2022-09-09T03:36:27;17.40;99.90
33761;DHT22;20084;47.912;19.044;2022-09-09T03:38:54;17.30;99.90
33761;DHT22;20084;47.912;19.044;2022-09-09T03:41:21;17.20;99.90
33761;DHT22;20084;47.912;19.044;2022-09-09T03:43:51;17.20;99.90
33761;DHT22;20084;47.912;19.044;2022-09-09T03:46:22;17.10;99.90
33761;DHT22;20084;47.912;19.044;2022-09-09T03:48:48;17.00;99.90
33761;DHT22;20084;47.912;19.044;2022-09-09T03:51:14;17.10;99.90
33761;DHT22;20084;47.912;19.044;2022-09-09T03:53:41;17.00;99.90
33761;DHT22;20084;47.912;19.044;2022-09-09T03:56:07;17.00;99.90
33761;DHT22;20084;47.912;19.044;2022-09-09T03:58:34;17.00;99.90
33761;DHT22;20084;47.912;19.044;2022-09-09T04:03:46;17.10;99.90
33761;DHT22;20084;47.912;19.044;2022-09-09T04:06:12;17.00;99.90
33761;DHT22;20084;47.912;19.044;2022-09-09T04:08:39;16.90;99.90
33761;DHT22;20084;47.912;19.044;2022-09-09T04:11:04;16.90;99.90
33761;DHT22;20084;47.912;19.044;2022-09-09T04:13:33;16.90;99.90
33761;DHT22;20084;47.912;19.044;2022-09-09T04:16:01;16.90;99.90
33761;DHT22;20084;47.912;19.044;2022-09-09T04:18:27;16.90;99.90
33761;DHT22;20084;47.912;19.044;2022-09-09T04:20:53;16.90;99.90
33761;DHT22;20084;47.912;19.044;2022-09-09T04:23:20;16.90;99.90
33761;DHT22;20084;47.912;19.044;2022-09-09T04:25:47;16.80;99.90
33761;DHT22;20084;47.912;19.044;2022-09-09T04:28:17;16.80;99.90
33761;DHT22;20084;47.912;19.044;2022-09-09T04:30:43;16.80;99.90
33761;DHT22;20084;47.912;19.044;2022-09-09T04:33:09;16.80;99.90
33761;DHT22;20084;47.912;19.044;2022-09-09T04:35:38;16.80;99.90
33761;DHT22;20084;47.912;19.044;2022-09-09T04:38:04;16.80;99.90
33761;DHT22;20084;47.912;19.044;2022-09-09T04:40:31;16.70;99.90
33761;DHT22;20084;47.912;19.044;2022-09-09T04:43:01;16.70;99.90
33761;DHT22;20084;47.912;19.044;2022-09-09T04:45:28;16.70;99.90
33761;DHT22;20084;47.912;19.044;2022-09-09T04:47:53;16.80;99.90
33761;DHT22;20084;47.912;19.044;2022-09-09T04:50:19;16.80;99.90
33761;DHT22;20084;47.912;19.044;2022-09-09T04:52:45;16.80;99.90
33761;DHT22;20084;47.912;19.044;2022-09-09T04:55:11;16.80;99.90
33761;DHT22;20084;47.912;19.044;2022-09-09T04:57:38;16.80;99.90
33761;DHT22;20084;47.912;19.044;2022-09-09T05:00:04;16.80;99.90
33761;DHT22;20084;47.912;19.044;2022-09-09T05:02:30;16.90;99.90
33761;DHT22;20084;47.912;19.044;2022-09-09T05:04:57;16.80;99.90
33761;DHT22;20084;47.912;19.044;2022-09-09T05:07:23;16.80;99.90
33761;DHT22;20084;47.912;19.044;2022-09-09T05:09:49;16.90;99.90
33761;DHT22;20084;47.912;19.044;2022-09-09T05:12:16;16.80;99.90
33761;DHT22;20084;47.912;19.044;2022-09-09T05:14:44;16.90;99.90
33761;DHT22;20084;47.912;19.044;2022-09-09T05:17:10;17.00;99.90
33761;DHT22;20084;47.912;19.044;2022-09-09T05:19:36;17.00;99.90
33761;DHT22;20084;47.912;19.044;2022-09-09T05:22:01;17.00;99.90
33761;DHT22;20084;47.912;19.044;2022-09-09T05:24:27;17.10;99.90
33761;DHT22;20084;47.912;19.044;2022-09-09T05:26:53;17.10;99.90
33761;DHT22;20084;47.912;19.044;2022-09-09T05:29:19;17.20;99.90
33761;DHT22;20084;47.912;19.044;2022-09-09T05:31:45;17.10;99.90
33761;DHT22;20084;47.912;19.044;2022-09-09T05:34:11;17.10;99.90
33761;DHT22;20084;47.912;19.044;2022-09-09T05:36:37;17.10;99.90
33761;DHT22;20084;47.912;19.044;2022-09-09T05:39:02;17.10;99.90
33761;DHT22;20084;47.912;19.044;2022-09-09T05:41:28;17.10;99.90
33761;DHT22;20084;47.912;19.044;2022-09-09T05:43:54;17.10;99.90
33761;DHT22;20084;47.912;19.044;2022-09-09T05:46:22;17.10;99.90
33761;DHT22;20084;47.912;19.044;2022-09-09T05:48:50;17.10;99.90
33761;DHT22;20084;47.912;19.044;2022-09-09T05:51:26;17.10;99.90
33761;DHT22;20084;47.912;19.044;2022-09-09T05:53:53;17.20;99.90
33761;DHT22;20084;47.912;19.044;2022-09-09T05:56:22;17.20;99.90
33761;DHT22;20084;47.912;19.044;2022-09-09T05:58:50;17.40;99.90
33761;DHT22;20084;47.912;19.044;2022-09-09T06:01:19;17.50;99.90
33761;DHT22;20084;47.912;19.044;2022-09-09T06:03:46;17.50;99.90
33761;DHT22;20084;47.912;19.044;2022-09-09T06:06:15;17.40;99.90
33761;DHT22;20084;47.912;19.044;2022-09-09T06:08:43;17.40;99.90
33761;DHT22;20084;47.912;19.044;2022-09-09T06:11:21;17.40;99.90
33761;DHT22;20084;47.912;19.044;2022-09-09T06:13:47;17.50;99.90
33761;DHT22;20084;47.912;19.044;2022-09-09T06:16:17;17.50;99.90
33761;DHT22;20084;47.912;19.044;2022-09-09T06:18:43;17.60;99.90
33761;DHT22;20084;47.912;19.044;2022-09-09T06:21:17;17.60;99.90
33761;DHT22;20084;47.912;19.044;2022-09-09T06:23:43;17.60;99.90
33761;DHT22;20084;47.912;19.044;2022-09-09T06:26:18;17.70;99.90
33761;DHT22;20084;47.912;19.044;2022-09-09T06:28:45;17.80;99.90
33761;DHT22;20084;47.912;19.044;2022-09-09T06:31:13;18.00;99.90
33761;DHT22;20084;47.912;19.044;2022-09-09T06:33:41;18.00;99.90
33761;DHT22;20084;47.912;19.044;2022-09-09T06:36:14;18.20;99.90
33761;DHT22;20084;47.912;19.044;2022-09-09T06:38:44;18.30;99.90
33761;DHT22;20084;47.912;19.044;2022-09-09T06:41:11;18.40;99.90
33761;DHT22;20084;47.912;19.044;2022-09-09T06:43:38;18.50;99.90
33761;DHT22;20084;47.912;19.044;2022-09-09T06:46:05;18.60;99.90
33761;DHT22;20084;47.912;19.044;2022-09-09T06:48:31;18.60;99.90
33761;DHT22;20084;47.912;19.044;2022-09-09T06:51:15;18.70;99.90
33761;DHT22;20084;47.912;19.044;2022-09-09T06:53:42;18.90;99.90
33761;DHT22;20084;47.912;19.044;2022-09-09T06:56:26;19.10;99.90
33761;DHT22;20084;47.912;19.044;2022-09-09T06:58:54;19.30;99.90
33761;DHT22;20084;47.912;19.044;2022-09-09T07:01:31;19.40;99.90
33761;DHT22;20084;47.912;19.044;2022-09-09T07:03:58;19.50;99.90
33761;DHT22;20084;47.912;19.044;2022-09-09T07:06:29;19.60;99.90
33761;DHT22;20084;47.912;19.044;2022-09-09T07:08:57;19.70;99.90
33761;DHT22;20084;47.912;19.044;2022-09-09T07:11:26;19.90;99.90
33761;DHT22;20084;47.912;19.044;2022-09-09T07:13:53;19.90;99.90
33761;DHT22;20084;47.912;19.044;2022-09-09T07:16:20;20.10;99.90
33761;DHT22;20084;47.912;19.044;2022-09-09T07:18:46;20.20;99.90
33761;DHT22;20084;47.912;19.044;2022-09-09T07:21:14;20.30;99.90
33761;DHT22;20084;47.912;19.044;2022-09-09T07:23:40;20.50;99.90
33761;DHT22;20084;47.912;19.044;2022-09-09T07:26:27;20.60;99.90
33761;DHT22;20084;47.912;19.044;2022-09-09T07:28:53;20.70;99.90
33761;DHT22;20084;47.912;19.044;2022-09-09T07:31:21;20.90;99.90
33761;DHT22;20084;47.912;19.044;2022-09-09T07:33:48;20.90;99.90
33761;DHT22;20084;47.912;19.044;2022-09-09T07:36:22;21.00;99.90
33761;DHT22;20084;47.912;19.044;2022-09-09T07:38:54;21.10;99.90
33761;DHT22;20084;47.912;19.044;2022-09-09T07:41:24;21.20;99.90
33761;DHT22;20084;47.912;19.044;2022-09-09T07:43:50;21.30;99.90
33761;DHT22;20084;47.912;19.044;2022-09-09T07:46:18;21.30;99.90
33761;DHT22;20084;47.912;19.044;2022-09-09T07:48:49;21.40;99.90
33761;DHT22;20084;47.912;19.044;2022-09-09T07:51:27;21.60;99.90
33761;DHT22;20084;47.912;19.044;2022-09-09T07:53:56;21.70;99.90
33761;DHT22;20084;47.912;19.044;2022-09-09T07:56:26;21.70;99.90
33761;DHT22;20084;47.912;19.044;2022-09-09T07:58:53;21.80;99.90
33761;DHT22;20084;47.912;19.044;2022-09-09T08:01:25;21.90;99.90
33761;DHT22;20084;47.912;19.044;2022-09-09T08:04:00;21.80;99.90
33761;DHT22;20084;47.912;19.044;2022-09-09T08:06:32;21.70;99.90
33761;DHT22;20084;47.912;19.044;2022-09-09T08:08:58;21.80;99.90
33761;DHT22;20084;47.912;19.044;2022-09-09T08:11:25;21.90;99.90
33761;DHT22;20084;47.912;19.044;2022-09-09T08:13:52;22.00;99.90
33761;DHT22;20084;47.912;19.044;2022-09-09T08:16:21;22.10;99.90
33761;DHT22;20084;47.912;19.044;2022-09-09T08:18:51;22.20;99.90
33761;DHT22;20084;47.912;19.044;2022-09-09T08:21:25;22.40;99.90
33761;DHT22;20084;47.912;19.044;2022-09-09T08:23:54;22.70;99.90
33761;DHT22;20084;47.912;19.044;2022-09-09T08:26:26;22.80;99.90
33761;DHT22;20084;47.912;19.044;2022-09-09T08:28:54;23.00;99.90
33761;DHT22;20084;47.912;19.044;2022-09-09T08:33:47;22.90;99.90
33761;DHT22;20084;47.912;19.044;2022-09-09T08:36:20;23.00;99.90
33761;DHT22;20084;47.912;19.044;2022-09-09T08:38:50;23.10;99.90
33761;DHT22;20084;47.912;19.044;2022-09-09T08:41:41;23.10;99.90
33761;DHT22;20084;47.912;19.044;2022-09-09T08:50:16;23.20;99.90
33761;DHT22;20084;47.912;19.044;2022-09-09T08:55:56;23.50;99.90
33761;DHT22;20084;47.912;19.044;2022-09-09T08:58:29;23.60;99.90
33761;DHT22;20084;47.912;19.044;2022-09-09T09:09:27;23.60;99.90
33761;DHT22;20084;47.912;19.044;2022-09-09T09:11:57;23.60;99.90
33761;DHT22;20084;47.912;19.044;2022-09-09T09:14:28;23.50;99.90
33761;DHT22;20084;47.912;19.044;2022-09-09T09:17:18;23.60;99.90
33761;DHT22;20084;47.912;19.044;2022-09-09T09:19:45;23.70;99.90
33761;DHT22;20084;47.912;19.044;2022-09-09T09:22:36;23.80;99.90
33761;DHT22;20084;47.912;19.044;2022-09-09T09:25:12;23.90;99.90
33761;DHT22;20084;47.912;19.044;2022-09-09T09:30:40;23.90;99.90
33761;DHT22;20084;47.912;19.044;2022-09-09T09:33:25;23.90;99.90
33761;DHT22;20084;47.912;19.044;2022-09-09T09:35:52;24.00;99.90
33761;DHT22;20084;47.912;19.044;2022-09-09T09:38:24;24.00;99.90
33761;DHT22;20084;47.912;19.044;2022-09-09T09:40:57;24.00;99.90
33761;DHT22;20084;47.912;19.044;2022-09-09T09:43:28;24.00;99.90
33761;DHT22;20084;47.912;19.044;2022-09-09T09:45:54;24.00;99.90
33761;DHT22;20084;47.912;19.044;2022-09-09T09:48:21;24.00;99.90
33761;DHT22;20084;47.912;19.044;2022-09-09T09:56:03;24.40;99.90
33761;DHT22;20084;47.912;19.044;2022-09-09T09:58:38;24.30;99.90
33761;DHT22;20084;47.912;19.044;2022-09-09T10:01:04;24.40;99.90
33761;DHT22;20084;47.912;19.044;2022-09-09T10:03:35;24.40;99.90
33761;DHT22;20084;47.912;19.044;2022-09-09T10:06:06;24.40;99.90
33761;DHT22;20084;47.912;19.044;2022-09-09T10:08:43;24.40;99.90
33761;DHT22;20084;47.912;19.044;2022-09-09T10:11:32;24.50;99.90
33761;DHT22;20084;47.912;19.044;2022-09-09T10:14:20;24.60;99.90
33761;DHT22;20084;47.912;19.044;2022-09-09T10:19:45;24.60;99.90
33761;DHT22;20084;47.912;19.044;2022-09-09T10:22:28;24.60;99.90
33761;DHT22;20084;47.912;19.044;2022-09-09T10:30:53;24.70;99.90
33761;DHT22;20084;47.912;19.044;2022-09-09T10:33:32;24.70;99.90
33761;DHT22;20084;47.912;19.044;2022-09-09T10:36:29;24.80;99.90
33761;DHT22;20084;47.912;19.044;2022-09-09T10:39:33;24.90;99.90
33761;DHT22;20084;47.912;19.044;2022-09-09T10:42:06;24.90;99.90
33761;DHT22;20084;47.912;19.044;2022-09-09T10:55:23;24.70;99.90
33761;DHT22;20084;47.912;19.044;2022-09-09T10:57:52;24.70;99.90
33761;DHT22;20084;47.912;19.044;2022-09-09T11:00:40;24.80;99.90
33761;DHT22;20084;47.912;19.044;2022-09-09T11:03:26;24.70;99.90
33761;DHT22;20084;47.912;19.044;2022-09-09T11:05:55;24.70;99.90
33761;DHT22;20084;47.912;19.044;2022-09-09T11:08:26;24.80;99.90
33761;DHT22;20084;47.912;19.044;2022-09-09T11:11:03;24.80;99.90
33761;DHT22;20084;47.912;19.044;2022-09-09T11:16:59;24.50;99.90
33761;DHT22;20084;47.912;19.044;2022-09-09T11:19:43;24.50;99.90
33761;DHT22;20084;47.912;19.044;2022-09-09T11:22:29;24.40;99.90
33761;DHT22;20084;47.912;19.044;2022-09-09T11:33:41;24.50;99.90
33761;DHT22;20084;47.912;19.044;2022-09-09T11:39:30;24.60;99.90
33761;DHT22;20084;47.912;19.044;2022-09-09T11:44:39;24.90;99.40
33761;DHT22;20084;47.912;19.044;2022-09-09T11:47:37;24.80;98.50
33761;DHT22;20084;47.912;19.044;2022-09-09T11:50:09;24.80;97.50
33761;DHT22;20084;47.912;19.044;2022-09-09T11:55:24;24.70;98.70
33761;DHT22;20084;47.912;19.044;2022-09-09T11:58:01;24.70;98.70
33761;DHT22;20084;47.912;19.044;2022-09-09T12:00:41;24.70;99.90
33761;DHT22;20084;47.912;19.044;2022-09-09T12:03:49;24.90;99.90
33761;DHT22;20084;47.912;19.044;2022-09-09T12:09:12;25.30;99.80
33761;DHT22;20084;47.912;19.044;2022-09-09T12:11:41;25.40;96.70
33761;DHT22;20084;47.912;19.044;2022-09-09T12:14:23;25.40;96.90
33761;DHT22;20084;47.912;19.044;2022-09-09T12:17:21;25.60;93.60
33761;DHT22;20084;47.912;19.044;2022-09-09T12:19:48;25.70;93.20
33761;DHT22;20084;47.912;19.044;2022-09-09T12:25:09;25.80;92.10
33761;DHT22;20084;47.912;19.044;2022-09-09T12:33:19;25.90;92.40
33761;DHT22;20084;47.912;19.044;2022-09-09T12:35:54;25.90;92.40
33761;DHT22;20084;47.912;19.044;2022-09-09T12:38:46;25.80;91.60
33761;DHT22;20084;47.912;19.044;2022-09-09T12:41:23;25.90;92.00
33761;DHT22;20084;47.912;19.044;2022-09-09T12:43:49;25.90;93.20
33761;DHT22;20084;47.912;19.044;2022-09-09T12:48:58;26.00;91.10
33761;DHT22;20084;47.912;19.044;2022-09-09T12:51:31;26.10;92.00
33761;DHT22;20084;47.912;19.044;2022-09-09T12:53:58;26.00;89.90
33761;DHT22;20084;47.912;19.044;2022-09-09T12:56:26;25.90;91.00
33761;DHT22;20084;47.912;19.044;2022-09-09T12:58:54;26.00;93.20
33761;DHT22;20084;47.912;19.044;2022-09-09T13:01:24;26.10;93.30
33761;DHT22;20084;47.912;19.044;2022-09-09T13:03:51;26.20;93.30
33761;DHT22;20084;47.912;19.044;2022-09-09T13:06:28;26.20;91.00
33761;DHT22;20084;47.912;19.044;2022-09-09T13:08:57;26.20;90.60
33761;DHT22;20084;47.912;19.044;2022-09-09T13:14:04;26.00;89.30
33761;DHT22;20084;47.912;19.044;2022-09-09T13:16:32;26.00;89.30
33761;DHT22;20084;47.912;19.044;2022-09-09T13:19:17;25.90;88.30
33761;DHT22;20084;47.912;19.044;2022-09-09T13:21:43;25.90;85.40
33761;DHT22;20084;47.912;19.044;2022-09-09T13:24:33;25.80;87.70
33761;DHT22;20084;47.912;19.044;2022-09-09T13:27:03;25.80;87.70
33761;DHT22;20084;47.912;19.044;2022-09-09T13:29:30;25.80;86.10
33761;DHT22;20084;47.912;19.044;2022-09-09T13:34:38;25.50;86.60
33761;DHT22;20084;47.912;19.044;2022-09-09T13:37:06;25.50;90.10
33761;DHT22;20084;47.912;19.044;2022-09-09T13:39:51;25.60;90.50
33761;DHT22;20084;47.912;19.044;2022-09-09T13:42:26;25.80;90.20
33761;DHT22;20084;47.912;19.044;2022-09-09T13:44:53;25.90;89.10
33761;DHT22;20084;47.912;19.044;2022-09-09T13:47:21;25.90;89.50
33761;DHT22;20084;47.912;19.044;2022-09-09T13:49:48;25.80;87.80
33761;DHT22;20084;47.912;19.044;2022-09-09T13:52:16;25.70;88.00
33761;DHT22;20084;47.912;19.044;2022-09-09T13:54:46;25.60;90.00
33761;DHT22;20084;47.912;19.044;2022-09-09T13:57:20;25.50;90.30
33761;DHT22;20084;47.912;19.044;2022-09-09T13:59:47;25.40;90.90
33761;DHT22;20084;47.912;19.044;2022-09-09T14:02:15;25.30;91.20
33761;DHT22;20084;47.912;19.044;2022-09-09T14:04:42;25.30;91.00
33761;DHT22;20084;47.912;19.044;2022-09-09T14:07:15;25.30;91.10
33761;DHT22;20084;47.912;19.044;2022-09-09T14:09:42;25.30;90.50
33761;DHT22;20084;47.912;19.044;2022-09-09T14:12:11;25.30;90.30
33761;DHT22;20084;47.912;19.044;2022-09-09T14:14:38;25.30;90.10
33761;DHT22;20084;47.912;19.044;2022-09-09T14:17:03;25.40;90.10
33761;DHT22;20084;47.912;19.044;2022-09-09T14:19:29;25.50;90.80
33761;DHT22;20084;47.912;19.044;2022-09-09T14:21:59;25.60;91.20
33761;DHT22;20084;47.912;19.044;2022-09-09T14:24:26;25.70;90.00
33761;DHT22;20084;47.912;19.044;2022-09-09T14:26:52;25.70;90.20
33761;DHT22;20084;47.912;19.044;2022-09-09T14:29:18;25.70;89.50
33761;DHT22;20084;47.912;19.044;2022-09-09T14:31:43;25.60;89.60
33761;DHT22;20084;47.912;19.044;2022-09-09T14:34:09;25.50;90.40
33761;DHT22;20084;47.912;19.044;2022-09-09T14:36:36;25.60;90.40
33761;DHT22;20084;47.912;19.044;2022-09-09T14:39:03;25.60;90.00
33761;DHT22;20084;47.912;19.044;2022-09-09T14:41:29;25.70;89.70
33761;DHT22;20084;47.912;19.044;2022-09-09T14:43:55;25.60;90.00
33761;DHT22;20084;47.912;19.044;2022-09-09T14:46:21;25.60;90.80
33761;DHT22;20084;47.912;19.044;2022-09-09T14:48:47;25.80;91.20
33761;DHT22;20084;47.912;19.044;2022-09-09T14:51:15;25.90;91.00
33761;DHT22;20084;47.912;19.044;2022-09-09T14:53:42;25.80;90.70
33761;DHT22;20084;47.912;19.044;2022-09-09T14:56:11;25.80;91.20
33761;DHT22;20084;47.912;19.044;2022-09-09T14:58:37;25.70;91.50
33761;DHT22;20084;47.912;19.044;2022-09-09T15:01:11;25.60;91.70
33761;DHT22;20084;47.912;19.044;2022-09-09T15:03:39;25.60;93.00
33761;DHT22;20084;47.912;19.044;2022-09-09T15:06:08;25.50;92.70
33761;DHT22;20084;47.912;19.044;2022-09-09T15:08:39;25.40;93.60
33761;DHT22;20084;47.912;19.044;2022-09-09T15:11:06;25.40;91.80
33761;DHT22;20084;47.912;19.044;2022-09-09T15:13:35;25.30;91.30
33761;DHT22;20084;47.912;19.044;2022-09-09T15:16:11;25.30;91.80
33761;DHT22;20084;47.912;19.044;2022-09-09T15:18:37;25.30;93.10
33761;DHT22;20084;47.912;19.044;2022-09-09T15:21:05;25.30;92.60
33761;DHT22;20084;47.912;19.044;2022-09-09T15:23:34;25.40;91.50
33761;DHT22;20084;47.912;19.044;2022-09-09T15:26:00;25.40;92.60
33761;DHT22;20084;47.912;19.044;2022-09-09T15:28:25;25.40;92.30
33761;DHT22;20084;47.912;19.044;2022-09-09T15:30:52;25.40;92.80
33761;DHT22;20084;47.912;19.044;2022-09-09T15:33:19;25.40;93.00
33761;DHT22;20084;47.912;19.044;2022-09-09T15:35:45;25.40;93.80
33761;DHT22;20084;47.912;19.044;2022-09-09T15:38:11;25.40;94.80
33761;DHT22;20084;47.912;19.044;2022-09-09T15:40:40;25.40;94.00
33761;DHT22;20084;47.912;19.044;2022-09-09T15:43:07;25.40;94.60
33761;DHT22;20084;47.912;19.044;2022-09-09T15:45:33;25.30;94.20
33761;DHT22;20084;47.912;19.044;2022-09-09T15:48:03;25.30;95.30
33761;DHT22;20084;47.912;19.044;2022-09-09T15:50:29;25.30;96.30
33761;DHT22;20084;47.912;19.044;2022-09-09T15:52:57;25.20;96.40
33761;DHT22;20084;47.912;19.044;2022-09-09T15:55:22;25.20;96.60
33761;DHT22;20084;47.912;19.044;2022-09-09T15:57:49;25.20;97.30
33761;DHT22;20084;47.912;19.044;2022-09-09T16:00:15;25.10;97.20
33761;DHT22;20084;47.912;19.044;2022-09-09T16:02:41;25.00;97.60
33761;DHT22;20084;47.912;19.044;2022-09-09T16:05:08;24.90;97.50
33761;DHT22;20084;47.912;19.044;2022-09-09T16:07:33;24.80;98.00
33761;DHT22;20084;47.912;19.044;2022-09-09T16:10:01;24.70;99.20
33761;DHT22;20084;47.912;19.044;2022-09-09T16:12:27;24.50;99.20
33761;DHT22;20084;47.912;19.044;2022-09-09T16:14:53;24.40;99.90
33761;DHT22;20084;47.912;19.044;2022-09-09T16:17:18;24.30;99.90
33761;DHT22;20084;47.912;19.044;2022-09-09T16:19:45;24.10;99.90
33761;DHT22;20084;47.912;19.044;2022-09-09T16:22:11;24.00;99.90
33761;DHT22;20084;47.912;19.044;2022-09-09T16:24:37;23.90;99.90
33761;DHT22;20084;47.912;19.044;2022-09-09T16:27:03;23.80;99.90
33761;DHT22;20084;47.912;19.044;2022-09-09T16:29:29;23.80;99.90
33761;DHT22;20084;47.912;19.044;2022-09-09T16:31:55;23.70;99.90
33761;DHT22;20084;47.912;19.044;2022-09-09T16:34:21;23.60;99.90
33761;DHT22;20084;47.912;19.044;2022-09-09T16:36:48;23.50;99.90
33761;DHT22;20084;47.912;19.044;2022-09-09T16:39:16;23.50;99.90
33761;DHT22;20084;47.912;19.044;2022-09-09T16:41:44;23.50;99.90
33761;DHT22;20084;47.912;19.044;2022-09-09T16:44:11;23.40;99.90
33761;DHT22;20084;47.912;19.044;2022-09-09T16:46:39;23.30;99.90
33761;DHT22;20084;47.912;19.044;2022-09-09T16:49:08;23.30;99.90
33761;DHT22;20084;47.912;19.044;2022-09-09T16:51:42;23.20;99.90
33761;DHT22;20084;47.912;19.044;2022-09-09T16:54:09;23.10;99.90
33761;DHT22;20084;47.912;19.044;2022-09-09T16:56:36;23.10;99.90
33761;DHT22;20084;47.912;19.044;2022-09-09T16:59:09;22.90;99.90
33761;DHT22;20084;47.912;19.044;2022-09-09T17:01:36;22.80;99.90
33761;DHT22;20084;47.912;19.044;2022-09-09T17:04:06;22.80;99.90
33761;DHT22;20084;47.912;19.044;2022-09-09T17:06:33;22.70;99.90
33761;DHT22;20084;47.912;19.044;2022-09-09T17:09:01;22.60;99.90
33761;DHT22;20084;47.912;19.044;2022-09-09T17:11:28;22.50;99.90
33761;DHT22;20084;47.912;19.044;2022-09-09T17:13:54;22.50;99.90
33761;DHT22;20084;47.912;19.044;2022-09-09T17:16:22;22.30;99.90
33761;DHT22;20084;47.912;19.044;2022-09-09T17:18:48;22.30;99.90
33761;DHT22;20084;47.912;19.044;2022-09-09T17:21:16;22.20;99.90
33761;DHT22;20084;47.912;19.044;2022-09-09T17:23:43;22.20;99.90
33761;DHT22;20084;47.912;19.044;2022-09-09T17:26:14;22.10;99.90
33761;DHT22;20084;47.912;19.044;2022-09-09T17:28:41;22.00;99.90
33761;DHT22;20084;47.912;19.044;2022-09-09T17:31:09;21.90;99.90
33761;DHT22;20084;47.912;19.044;2022-09-09T17:33:36;21.80;99.90
33761;DHT22;20084;47.912;19.044;2022-09-09T17:36:17;21.80;99.90
33761;DHT22;20084;47.912;19.044;2022-09-09T17:38:44;21.70;99.90
33761;DHT22;20084;47.912;19.044;2022-09-09T17:41:11;21.60;99.90
33761;DHT22;20084;47.912;19.044;2022-09-09T17:43:37;21.50;99.90
33761;DHT22;20084;47.912;19.044;2022-09-09T17:46:15;21.50;99.90
33761;DHT22;20084;47.912;19.044;2022-09-09T17:48:42;21.40;99.90
33761;DHT22;20084;47.912;19.044;2022-09-09T17:51:12;21.40;99.90
33761;DHT22;20084;47.912;19.044;2022-09-09T17:53:39;21.40;99.90